sensor_id;sensor_type;location;lat;lon;timestamp;pressure;altitude;pressure_sealevel;temperature;humidity
76632;BME280;65526;48.578;-4.520;2023-03-14T00:01:23;99729.28;;;10.13;83.81
76632;BME280;65526;48.578;-4.520;2023-03-14T00:03:50;99494.72;;;7.98;81.66
76632;BME280;65526;48.578;-4.520;2023-03-14T00:06:18;99509.69;;;8.32;82.34
76632;BME280;65526;48.578;-4.520;2023-03-14T00:08:44;99785.00;;;10.01;83.23
76632;BME280;65526;48.578;-4.520;2023-03-14T00:11:14;98976.97;;;5.05;82.43
76632;BME280;65526;48.578;-4.520;2023-03-14T00:13:40;99428.03;;;7.84;81.23
76632;BME280;65526;48.578;-4.520;2023-03-14T00:16:10;98926.66;;;4.58;81.58
76632;BME280;65526;48.578;-4.520;2023-03-14T00:18:37;99117.53;;;5.40;82.54
76632;BME280;65526;48.578;-4.520;2023-03-14T00:21:05;98933.38;;;4.45;82.77
76632;BME280;65526;48.578;-4.520;2023-03-14T00:23:35;98997.41;;;4.73;82.52
76632;BME280;65526;48.578;-4.520;2023-03-14T00:26:11;99039.97;;;4.91;82.15
76632;BME280;65526;48.578;-4.520;2023-03-14T00:28:38;99299.50;;;6.50;81.76
76632;BME280;65526;48.578;-4.520;2023-03-14T00:31:07;99542.22;;;8.00;81.29
76632;BME280;65526;48.578;-4.520;2023-03-14T00:33:34;99114.31;;;5.23;81.93
76632;BME280;65526;48.578;-4.520;2023-03-14T00:36:05;99336.81;;;6.44;80.75
76632;BME280;65526;48.578;-4.520;2023-03-14T00:38:33;99401.09;;;6.60;80.10
76632;BME280;65526;48.578;-4.520;2023-03-14T00:41:03;99914.25;;;9.63;80.76
76632;BME280;65526;48.578;-4.520;2023-03-14T00:43:30;99642.84;;;8.11;80.27
76632;BME280;65526;48.578;-4.520;2023-03-14T00:45:57;99743.72;;;8.45;79.81
76632;BME280;65526;48.578;-4.520;2023-03-14T00:48:27;99938.94;;;9.49;79.71
76632;BME280;65526;48.578;-4.520;2023-03-14T00:50:53;99909.44;;;9.41;80.07
76632;BME280;65526;48.578;-4.520;2023-03-14T00:53:20;99351.75;;;6.12;79.93
76632;BME280;65526;48.578;-4.520;2023-03-14T00:55:48;99953.69;;;9.53;78.96
76632;BME280;65526;48.578;-4.520;2023-03-14T00:58:16;99927.41;;;9.31;78.30
76632;BME280;65526;48.578;-4.520;2023-03-14T01:00:44;99588.84;;;7.20;76.66
76632;BME280;65526;48.578;-4.520;2023-03-14T01:03:11;99996.66;;;9.28;77.78
76632;BME280;65526;48.578;-4.520;2023-03-14T01:05:38;99374.97;;;6.11;78.18
76632;BME280;65526;48.578;-4.520;2023-03-14T01:08:06;99642.72;;;7.57;78.54
76632;BME280;65526;48.578;-4.520;2023-03-14T01:10:37;99982.13;;;9.50;78.40
76632;BME280;65526;48.578;-4.520;2023-03-14T01:13:05;99670.88;;;7.31;78.40
76632;BME280;65526;48.578;-4.520;2023-03-14T01:15:33;99468.63;;;6.35;77.05
76632;BME280;65526;48.578;-4.520;2023-03-14T01:18:01;99282.78;;;4.60;76.12
76632;BME280;65526;48.578;-4.520;2023-03-14T01:20:28;99173.19;;;4.10;76.72
76632;BME280;65526;48.578;-4.520;2023-03-14T01:22:54;99710.44;;;7.35;77.66
76632;BME280;65526;48.578;-4.520;2023-03-14T01:25:21;99448.41;;;5.63;76.33
76632;BME280;65526;48.578;-4.520;2023-03-14T01:27:48;99541.06;;;6.04;73.71
76632;BME280;65526;48.578;-4.520;2023-03-14T01:30:14;99081.16;;;3.43;72.68
76632;BME280;65526;48.578;-4.520;2023-03-14T01:32:41;99253.13;;;4.42;73.24
76632;BME280;65526;48.578;-4.520;2023-03-14T01:35:08;99762.72;;;7.40;74.67
76632;BME280;65526;48.578;-4.520;2023-03-14T01:37:35;99571.44;;;6.20;75.11
76632;BME280;65526;48.578;-4.520;2023-03-14T01:40:03;99844.25;;;7.46;75.57
76632;BME280;65526;48.578;-4.520;2023-03-14T01:42:31;100147.25;;;9.16;75.80
76632;BME280;65526;48.578;-4.520;2023-03-14T01:45:00;99538.72;;;6.06;76.52
76632;BME280;65526;48.578;-4.520;2023-03-14T01:47:27;100046.97;;;8.83;78.51
76632;BME280;65526;48.578;-4.520;2023-03-14T01:49:59;99770.88;;;6.69;80.11
76632;BME280;65526;48.578;-4.520;2023-03-14T01:54:59;99734.69;;;6.22;82.37
76632;BME280;65526;48.578;-4.520;2023-03-14T02:00:18;99291.94;;;3.46;79.49
76632;BME280;65526;48.578;-4.520;2023-03-14T02:02:56;99662.91;;;5.37;79.23
76632;BME280;65526;48.578;-4.520;2023-03-14T02:05:36;99852.66;;;6.86;77.44
76632;BME280;65526;48.578;-4.520;2023-03-14T02:08:15;99817.59;;;6.50;77.25
76632;BME280;65526;48.578;-4.520;2023-03-14T02:10:49;99562.78;;;5.33;77.45
76632;BME280;65526;48.578;-4.520;2023-03-14T02:13:20;99536.75;;;5.18;75.27
76632;BME280;65526;48.578;-4.520;2023-03-14T02:16:16;99563.16;;;5.43;72.88
76632;BME280;65526;48.578;-4.520;2023-03-14T02:19:02;100157.97;;;8.74;71.88
76632;BME280;65526;48.578;-4.520;2023-03-14T02:27:30;99855.84;;;7.12;70.07
76632;BME280;65526;48.578;-4.520;2023-03-14T02:32:31;99845.47;;;7.09;63.75
76632;BME280;65526;48.578;-4.520;2023-03-14T02:35:00;99706.22;;;5.61;64.29
76632;BME280;65526;48.578;-4.520;2023-03-14T02:37:35;99893.84;;;7.27;64.22
76632;BME280;65526;48.578;-4.520;2023-03-14T02:40:04;99961.41;;;7.18;63.67
76632;BME280;65526;48.578;-4.520;2023-03-14T02:42:33;99766.06;;;6.29;63.93
76632;BME280;65526;48.578;-4.520;2023-03-14T02:47:53;100164.91;;;8.68;64.24
76632;BME280;65526;48.578;-4.520;2023-03-14T02:50:25;99678.53;;;5.45;64.53
76632;BME280;65526;48.578;-4.520;2023-03-14T02:52:55;99595.03;;;5.20;65.47
76632;BME280;65526;48.578;-4.520;2023-03-14T02:55:22;100233.78;;;8.69;65.86
76632;BME280;65526;48.578;-4.520;2023-03-14T02:57:50;99814.34;;;6.35;66.47
76632;BME280;65526;48.578;-4.520;2023-03-14T03:00:21;99935.72;;;6.68;67.66
76632;BME280;65526;48.578;-4.520;2023-03-14T03:02:48;100099.50;;;7.99;69.23
76632;BME280;65526;48.578;-4.520;2023-03-14T03:05:14;99840.72;;;6.45;70.71
76632;BME280;65526;48.578;-4.520;2023-03-14T03:07:41;99933.25;;;6.43;72.68
76632;BME280;65526;48.578;-4.520;2023-03-14T03:10:08;99880.00;;;6.30;74.66
76632;BME280;65526;48.578;-4.520;2023-03-14T03:12:35;99757.53;;;4.99;75.84
76632;BME280;65526;48.578;-4.520;2023-03-14T03:15:01;99843.47;;;5.88;75.23
76632;BME280;65526;48.578;-4.520;2023-03-14T03:17:28;99553.66;;;3.97;74.53
76632;BME280;65526;48.578;-4.520;2023-03-14T03:19:55;99632.28;;;4.72;74.17
76632;BME280;65526;48.578;-4.520;2023-03-14T03:22:21;99487.13;;;3.41;75.17
76632;BME280;65526;48.578;-4.520;2023-03-14T03:24:48;99661.38;;;4.94;73.55
76632;BME280;65526;48.578;-4.520;2023-03-14T03:27:15;99863.28;;;5.81;73.46
76632;BME280;65526;48.578;-4.520;2023-03-14T03:29:41;99907.03;;;6.36;72.90
76632;BME280;65526;48.578;-4.520;2023-03-14T03:32:08;99349.41;;;2.89;71.98
76632;BME280;65526;48.578;-4.520;2023-03-14T03:34:34;99995.34;;;6.82;71.86
76632;BME280;65526;48.578;-4.520;2023-03-14T03:37:01;100268.22;;;8.44;71.11
76632;BME280;65526;48.578;-4.520;2023-03-14T03:39:30;99713.56;;;4.91;71.37
76632;BME280;65526;48.578;-4.520;2023-03-14T03:41:56;99905.78;;;6.01;72.19
76632;BME280;65526;48.578;-4.520;2023-03-14T03:44:23;99285.44;;;2.47;72.18
76632;BME280;65526;48.578;-4.520;2023-03-14T03:46:51;99889.81;;;5.86;72.52
76632;BME280;65526;48.578;-4.520;2023-03-14T03:49:18;99960.34;;;6.73;73.27
76632;BME280;65526;48.578;-4.520;2023-03-14T03:51:44;100318.41;;;8.67;73.73
76632;BME280;65526;48.578;-4.520;2023-03-14T03:54:11;100123.16;;;7.60;72.21
76632;BME280;65526;48.578;-4.520;2023-03-14T03:56:38;100012.94;;;6.77;70.86
76632;BME280;65526;48.578;-4.520;2023-03-14T03:59:06;100159.19;;;7.88;70.64
76632;BME280;65526;48.578;-4.520;2023-03-14T04:01:32;99327.78;;;2.88;69.78
76632;BME280;65526;48.578;-4.520;2023-03-14T04:03:59;100071.63;;;7.19;70.38
76632;BME280;65526;48.578;-4.520;2023-03-14T04:06:26;100037.47;;;6.79;71.26
76632;BME280;65526;48.578;-4.520;2023-03-14T04:08:56;99628.56;;;4.56;70.70
76632;BME280;65526;48.578;-4.520;2023-03-14T04:11:36;99773.31;;;5.32;73.19
76632;BME280;65526;48.578;-4.520;2023-03-14T04:14:22;99759.69;;;5.14;74.12
76632;BME280;65526;48.578;-4.520;2023-03-14T04:16:58;100392.03;;;8.56;73.00
76632;BME280;65526;48.578;-4.520;2023-03-14T04:19:29;99935.59;;;6.20;72.48
76632;BME280;65526;48.578;-4.520;2023-03-14T04:21:56;99878.25;;;5.18;72.23
76632;BME280;65526;48.578;-4.520;2023-03-14T04:24:25;100022.00;;;6.65;72.63
76632;BME280;65526;48.578;-4.520;2023-03-14T04:26:56;100149.34;;;6.85;72.87
76632;BME280;65526;48.578;-4.520;2023-03-14T04:29:22;99544.06;;;3.53;72.35
76632;BME280;65526;48.578;-4.520;2023-03-14T04:31:49;100338.06;;;7.72;73.46
76632;BME280;65526;48.578;-4.520;2023-03-14T04:34:16;99998.84;;;5.92;74.36
76632;BME280;65526;48.578;-4.520;2023-03-14T04:36:48;99634.78;;;3.74;75.01
76632;BME280;65526;48.578;-4.520;2023-03-14T04:39:19;100342.81;;;8.28;75.62
76632;BME280;65526;48.578;-4.520;2023-03-14T04:41:53;99885.75;;;5.09;75.89
76632;BME280;65526;48.578;-4.520;2023-03-14T04:44:20;100371.25;;;8.38;75.94
76632;BME280;65526;48.578;-4.520;2023-03-14T04:46:50;99799.00;;;5.03;76.01
76632;BME280;65526;48.578;-4.520;2023-03-14T04:49:16;100431.59;;;8.44;77.05
76632;BME280;65526;48.578;-4.520;2023-03-14T04:51:43;100419.03;;;8.47;77.56
76632;BME280;65526;48.578;-4.520;2023-03-14T04:54:09;99808.66;;;5.09;77.07
76632;BME280;65526;48.578;-4.520;2023-03-14T04:56:36;99657.59;;;3.66;76.42
76632;BME280;65526;48.578;-4.520;2023-03-14T04:59:04;100332.75;;;8.12;76.76
76632;BME280;65526;48.578;-4.520;2023-03-14T05:01:34;100068.25;;;6.35;74.28
76632;BME280;65526;48.578;-4.520;2023-03-14T05:04:22;100377.03;;;8.45;72.08
76632;BME280;65526;48.578;-4.520;2023-03-14T05:07:07;100403.56;;;8.46;71.80
76632;BME280;65526;48.578;-4.520;2023-03-14T05:09:54;99961.53;;;5.15;70.81
76632;BME280;65526;48.578;-4.520;2023-03-14T05:12:42;100381.19;;;8.39;71.13
76632;BME280;65526;48.578;-4.520;2023-03-14T05:15:27;99922.97;;;5.15;70.87
76632;BME280;65526;48.578;-4.520;2023-03-14T05:18:19;99615.91;;;3.26;71.35
76632;BME280;65526;48.578;-4.520;2023-03-14T05:20:56;100130.94;;;6.68;70.52
76632;BME280;65526;48.578;-4.520;2023-03-14T05:23:41;100449.03;;;8.45;70.95
76632;BME280;65526;48.578;-4.520;2023-03-14T05:26:15;99627.28;;;3.53;70.74
76632;BME280;65526;48.578;-4.520;2023-03-14T05:29:01;100431.97;;;8.55;71.26
76632;BME280;65526;48.578;-4.520;2023-03-14T05:31:42;99723.09;;;4.31;70.88
76632;BME280;65526;48.578;-4.520;2023-03-14T05:34:30;100062.38;;;6.37;71.81
76632;BME280;65526;48.578;-4.520;2023-03-14T05:37:09;99521.59;;;2.92;72.48
76632;BME280;65526;48.578;-4.520;2023-03-14T05:39:50;100074.78;;;6.10;73.65
76632;BME280;65526;48.578;-4.520;2023-03-14T05:42:35;100057.50;;;5.72;74.54
76632;BME280;65526;48.578;-4.520;2023-03-14T05:45:24;100286.06;;;7.32;75.07
76632;BME280;65526;48.578;-4.520;2023-03-14T05:48:10;100378.75;;;7.71;74.51
76632;BME280;65526;48.578;-4.520;2023-03-14T05:50:55;100444.59;;;8.31;74.61
76632;BME280;65526;48.578;-4.520;2023-03-14T05:53:52;99649.03;;;3.29;74.07
76632;BME280;65526;48.578;-4.520;2023-03-14T05:56:37;99916.63;;;4.94;74.28
76632;BME280;65526;48.578;-4.520;2023-03-14T05:59:10;100124.72;;;6.17;73.92
76632;BME280;65526;48.578;-4.520;2023-03-14T06:02:12;99991.38;;;4.75;73.60
76632;BME280;65526;48.578;-4.520;2023-03-14T06:04:48;100549.53;;;8.24;76.42
76632;BME280;65526;48.578;-4.520;2023-03-14T06:07:15;100211.38;;;6.16;77.55
76632;BME280;65526;48.578;-4.520;2023-03-14T06:09:42;100152.78;;;5.81;78.87
76632;BME280;65526;48.578;-4.520;2023-03-14T06:12:09;100212.75;;;6.02;79.25
76632;BME280;65526;48.578;-4.520;2023-03-14T06:14:41;100215.91;;;5.91;79.71
76632;BME280;65526;48.578;-4.520;2023-03-14T06:17:08;99946.88;;;4.09;80.39
76632;BME280;65526;48.578;-4.520;2023-03-14T06:19:41;99990.84;;;4.26;80.33
76632;BME280;65526;48.578;-4.520;2023-03-14T06:22:12;100358.06;;;6.65;79.94
76632;BME280;65526;48.578;-4.520;2023-03-14T06:24:38;100023.69;;;4.87;79.22
76632;BME280;65526;48.578;-4.520;2023-03-14T06:27:05;99698.16;;;3.13;78.19
76632;BME280;65526;48.578;-4.520;2023-03-14T06:29:33;100548.97;;;8.10;74.69
76632;BME280;65526;48.578;-4.520;2023-03-14T06:32:02;100217.84;;;5.91;74.37
76632;BME280;65526;48.578;-4.520;2023-03-14T06:34:30;100232.25;;;5.96;74.14
76632;BME280;65526;48.578;-4.520;2023-03-14T06:36:56;100245.06;;;6.30;74.88
76632;BME280;65526;48.578;-4.520;2023-03-14T06:39:23;100286.06;;;6.11;76.09
76632;BME280;65526;48.578;-4.520;2023-03-14T06:41:58;99685.75;;;2.99;75.88
76632;BME280;65526;48.578;-4.520;2023-03-14T06:44:25;99658.66;;;2.80;73.45
76632;BME280;65526;48.578;-4.520;2023-03-14T06:46:51;100012.81;;;4.99;73.34
76632;BME280;65526;48.578;-4.520;2023-03-14T06:49:19;100235.41;;;6.45;73.63
76632;BME280;65526;48.578;-4.520;2023-03-14T06:51:47;100547.03;;;8.11;73.65
76632;BME280;65526;48.578;-4.520;2023-03-14T06:54:15;100186.41;;;6.33;73.16
76632;BME280;65526;48.578;-4.520;2023-03-14T06:56:42;100337.91;;;6.64;73.87
76632;BME280;65526;48.578;-4.520;2023-03-14T06:59:09;100267.56;;;6.41;74.46
76632;BME280;65526;48.578;-4.520;2023-03-14T07:01:36;99592.53;;;1.87;75.50
76632;BME280;65526;48.578;-4.520;2023-03-14T07:04:09;99642.69;;;2.73;75.90
76632;BME280;65526;48.578;-4.520;2023-03-14T07:06:38;100591.66;;;8.51;76.74
76632;BME280;65526;48.578;-4.520;2023-03-14T07:09:05;100018.16;;;4.95;76.44
76632;BME280;65526;48.578;-4.520;2023-03-14T07:11:35;99971.16;;;4.71;76.44
76632;BME280;65526;48.578;-4.520;2023-03-14T07:14:02;99751.94;;;3.14;76.78
76632;BME280;65526;48.578;-4.520;2023-03-14T07:16:28;100005.91;;;4.84;76.26
76632;BME280;65526;48.578;-4.520;2023-03-14T07:18:57;100088.09;;;5.11;75.28
76632;BME280;65526;48.578;-4.520;2023-03-14T07:21:24;100614.03;;;8.66;73.52
76632;BME280;65526;48.578;-4.520;2023-03-14T07:23:51;99836.16;;;3.74;71.15
76632;BME280;65526;48.578;-4.520;2023-03-14T07:26:18;100072.31;;;5.29;71.38
76632;BME280;65526;48.578;-4.520;2023-03-14T07:28:49;100240.84;;;5.95;71.68
76632;BME280;65526;48.578;-4.520;2023-03-14T07:31:18;100224.66;;;5.76;72.52
76632;BME280;65526;48.578;-4.520;2023-03-14T07:33:46;100442.06;;;7.23;73.01
76632;BME280;65526;48.578;-4.520;2023-03-14T07:36:15;99739.34;;;2.96;72.14
76632;BME280;65526;48.578;-4.520;2023-03-14T07:38:44;100463.41;;;6.75;72.69
76632;BME280;65526;48.578;-4.520;2023-03-14T07:41:29;100329.66;;;5.45;72.43
76632;BME280;65526;48.578;-4.520;2023-03-14T07:44:22;99781.53;;;2.26;71.77
76632;BME280;65526;48.578;-4.520;2023-03-14T07:46:48;100116.56;;;4.17;72.73
76632;BME280;65526;48.578;-4.520;2023-03-14T07:49:14;99864.06;;;2.73;73.71
76632;BME280;65526;48.578;-4.520;2023-03-14T07:51:41;100135.31;;;4.24;75.38
76632;BME280;65526;48.578;-4.520;2023-03-14T07:54:07;100675.72;;;7.96;76.56
76632;BME280;65526;48.578;-4.520;2023-03-14T07:56:33;100157.31;;;4.58;76.51
76632;BME280;65526;48.578;-4.520;2023-03-14T07:59:00;100703.25;;;8.22;76.34
76632;BME280;65526;48.578;-4.520;2023-03-14T08:01:27;100471.78;;;6.58;74.73
76632;BME280;65526;48.578;-4.520;2023-03-14T08:03:53;100362.38;;;5.90;72.80
76632;BME280;65526;48.578;-4.520;2023-03-14T08:06:19;100789.94;;;8.52;71.06
76632;BME280;65526;48.578;-4.520;2023-03-14T08:08:46;100737.28;;;8.60;70.60
76632;BME280;65526;48.578;-4.520;2023-03-14T08:11:12;99808.94;;;3.00;70.41
76632;BME280;65526;48.578;-4.520;2023-03-14T08:13:39;100565.72;;;7.34;72.17
76632;BME280;65526;48.578;-4.520;2023-03-14T08:16:06;100170.84;;;5.24;70.93
76632;BME280;65526;48.578;-4.520;2023-03-14T08:18:32;100491.97;;;6.88;70.07
76632;BME280;65526;48.578;-4.520;2023-03-14T08:20:59;100727.88;;;8.94;71.43
76632;BME280;65526;48.578;-4.520;2023-03-14T08:23:28;100167.22;;;5.49;72.11
76632;BME280;65526;48.578;-4.520;2023-03-14T08:25:55;100806.72;;;9.05;71.01
76632;BME280;65526;48.578;-4.520;2023-03-14T08:28:21;100845.66;;;9.09;71.56
76632;BME280;65526;48.578;-4.520;2023-03-14T08:30:48;100210.44;;;5.66;70.11
76632;BME280;65526;48.578;-4.520;2023-03-14T08:33:14;100471.03;;;7.46;70.33
76632;BME280;65526;48.578;-4.520;2023-03-14T08:35:41;100845.25;;;9.40;71.39
76632;BME280;65526;48.578;-4.520;2023-03-14T08:38:07;100391.50;;;6.25;71.38
76632;BME280;65526;48.578;-4.520;2023-03-14T08:40:34;100099.47;;;5.01;71.49
76632;BME280;65526;48.578;-4.520;2023-03-14T08:43:01;100538.13;;;7.26;70.70
76632;BME280;65526;48.578;-4.520;2023-03-14T08:45:27;100167.59;;;5.30;69.83
76632;BME280;65526;48.578;-4.520;2023-03-14T08:47:54;99941.53;;;3.44;67.73
76632;BME280;65526;48.578;-4.520;2023-03-14T08:50:20;100472.16;;;7.15;69.33
76632;BME280;65526;48.578;-4.520;2023-03-14T08:52:53;100624.72;;;7.76;69.83
76632;BME280;65526;48.578;-4.520;2023-03-14T08:55:19;100498.44;;;7.30;69.69
76632;BME280;65526;48.578;-4.520;2023-03-14T08:57:46;100335.66;;;6.20;69.32
76632;BME280;65526;48.578;-4.520;2023-03-14T09:00:12;99934.94;;;3.96;70.45
76632;BME280;65526;48.578;-4.520;2023-03-14T09:02:42;100293.03;;;6.09;69.40
76632;BME280;65526;48.578;-4.520;2023-03-14T09:05:09;100294.97;;;6.17;68.77
76632;BME280;65526;48.578;-4.520;2023-03-14T09:07:37;100073.44;;;4.82;68.04
76632;BME280;65526;48.578;-4.520;2023-03-14T09:10:04;100614.72;;;7.92;68.26
76632;BME280;65526;48.578;-4.520;2023-03-14T09:12:31;100827.97;;;9.76;69.19
76632;BME280;65526;48.578;-4.520;2023-03-14T09:14:57;100593.72;;;7.91;68.54
76632;BME280;65526;48.578;-4.520;2023-03-14T09:17:24;100005.41;;;4.18;66.88
76632;BME280;65526;48.578;-4.520;2023-03-14T09:19:50;100922.44;;;9.79;68.15
76632;BME280;65526;48.578;-4.520;2023-03-14T09:22:17;100656.94;;;8.10;65.41
76632;BME280;65526;48.578;-4.520;2023-03-14T09:24:48;100904.91;;;9.87;64.47
76632;BME280;65526;48.578;-4.520;2023-03-14T09:27:15;100087.69;;;4.75;63.43
76632;BME280;65526;48.578;-4.520;2023-03-14T09:29:42;100588.00;;;7.38;63.41
76632;BME280;65526;48.578;-4.520;2023-03-14T09:32:08;100976.59;;;9.85;66.29
76632;BME280;65526;48.578;-4.520;2023-03-14T09:34:35;100131.72;;;5.39;67.19
76632;BME280;65526;48.578;-4.520;2023-03-14T09:37:01;100917.75;;;9.92;65.71
76632;BME280;65526;48.578;-4.520;2023-03-14T09:39:28;100231.81;;;5.77;65.11
76632;BME280;65526;48.578;-4.520;2023-03-14T09:41:56;100001.66;;;4.40;66.28
76632;BME280;65526;48.578;-4.520;2023-03-14T09:44:33;100364.84;;;6.38;68.25
76632;BME280;65526;48.578;-4.520;2023-03-14T09:47:04;100603.56;;;8.30;69.34
76632;BME280;65526;48.578;-4.520;2023-03-14T09:49:35;100611.22;;;8.04;69.09
76632;BME280;65526;48.578;-4.520;2023-03-14T09:52:17;100690.25;;;8.52;67.67
76632;BME280;65526;48.578;-4.520;2023-03-14T09:54:53;100576.38;;;8.03;67.85
76632;BME280;65526;48.578;-4.520;2023-03-14T09:57:23;100366.47;;;6.68;67.07
76632;BME280;65526;48.578;-4.520;2023-03-14T09:59:53;100703.09;;;8.27;67.31
76632;BME280;65526;48.578;-4.520;2023-03-14T10:02:28;100987.34;;;10.08;66.70
76632;BME280;65526;48.578;-4.520;2023-03-14T10:04:58;100704.06;;;8.22;66.29
76632;BME280;65526;48.578;-4.520;2023-03-14T10:07:28;100395.28;;;6.59;67.63
76632;BME280;65526;48.578;-4.520;2023-03-14T10:09:56;100619.72;;;7.99;66.37
76632;BME280;65526;48.578;-4.520;2023-03-14T10:12:36;100073.50;;;4.56;66.63
76632;BME280;65526;48.578;-4.520;2023-03-14T10:15:06;100406.78;;;6.61;67.64
76632;BME280;65526;48.578;-4.520;2023-03-14T10:17:49;100699.28;;;7.73;67.31
76632;BME280;65526;48.578;-4.520;2023-03-14T10:20:33;101084.59;;;9.99;68.66
76632;BME280;65526;48.578;-4.520;2023-03-14T10:23:27;100795.19;;;8.74;68.12
76632;BME280;65526;48.578;-4.520;2023-03-14T10:26:15;100960.06;;;10.10;69.58
76632;BME280;65526;48.578;-4.520;2023-03-14T10:28:43;100975.03;;;10.17;68.93
76632;BME280;65526;48.578;-4.520;2023-03-14T10:31:14;100696.69;;;8.06;68.63
76632;BME280;65526;48.578;-4.520;2023-03-14T10:33:41;100461.69;;;7.00;69.43
76632;BME280;65526;48.578;-4.520;2023-03-14T10:36:26;100753.09;;;8.60;68.88
76632;BME280;65526;48.578;-4.520;2023-03-14T10:39:21;100988.69;;;10.43;68.11
76632;BME280;65526;48.578;-4.520;2023-03-14T10:41:52;100636.81;;;8.22;67.87
76632;BME280;65526;48.578;-4.520;2023-03-14T10:44:21;100802.25;;;8.92;69.25
76632;BME280;65526;48.578;-4.520;2023-03-14T10:47:00;101048.84;;;10.39;69.26
76632;BME280;65526;48.578;-4.520;2023-03-14T10:49:35;100507.44;;;7.19;69.38
76632;BME280;65526;48.578;-4.520;2023-03-14T10:52:24;100267.47;;;5.74;69.22
76632;BME280;65526;48.578;-4.520;2023-03-14T10:54:57;100186.16;;;4.78;70.59
76632;BME280;65526;48.578;-4.520;2023-03-14T10:57:25;101076.53;;;10.68;70.11
76632;BME280;65526;48.578;-4.520;2023-03-14T10:59:53;100527.22;;;7.59;69.84
76632;BME280;65526;48.578;-4.520;2023-03-14T11:03:14;100752.66;;;8.49;68.32
76632;BME280;65526;48.578;-4.520;2023-03-14T11:07:48;100500.66;;;7.07;68.78
76632;BME280;65526;48.578;-4.520;2023-03-14T11:10:39;100344.59;;;6.25;67.71
76632;BME280;65526;48.578;-4.520;2023-03-14T11:13:17;100856.41;;;9.52;68.08
76632;BME280;65526;48.578;-4.520;2023-03-14T11:19:12;101036.38;;;10.78;69.10
76632;BME280;65526;48.578;-4.520;2023-03-14T11:22:27;101039.53;;;10.89;67.88
76632;BME280;65526;48.578;-4.520;2023-03-14T11:27:22;100644.06;;;8.14;66.20
76632;BME280;65526;48.578;-4.520;2023-03-14T11:32:44;101057.44;;;10.79;65.94
76632;BME280;65526;48.578;-4.520;2023-03-14T11:35:24;100583.88;;;7.52;68.15
76632;BME280;65526;48.578;-4.520;2023-03-14T11:40:33;100681.72;;;7.69;66.15
76632;BME280;65526;48.578;-4.520;2023-03-14T11:43:20;100891.50;;;9.06;66.14
76632;BME280;65526;48.578;-4.520;2023-03-14T11:45:56;100376.31;;;6.02;66.05
76632;BME280;65526;48.578;-4.520;2023-03-14T11:48:36;100495.94;;;6.61;67.12
76632;BME280;65526;48.578;-4.520;2023-03-14T11:51:26;100554.97;;;7.71;68.43
76632;BME280;65526;48.578;-4.520;2023-03-14T11:54:07;101124.94;;;11.00;68.05
76632;BME280;65526;48.578;-4.520;2023-03-14T11:56:46;100577.28;;;7.28;69.31
76632;BME280;65526;48.578;-4.520;2023-03-14T11:59:21;100660.59;;;8.23;66.99
76632;BME280;65526;48.578;-4.520;2023-03-14T12:02:55;100609.03;;;7.89;67.55
76632;BME280;65526;48.578;-4.520;2023-03-14T12:10:24;100622.78;;;8.06;66.12
76632;BME280;65526;48.578;-4.520;2023-03-14T12:12:50;100675.22;;;7.73;67.23
76632;BME280;65526;48.578;-4.520;2023-03-14T12:15:21;101113.47;;;10.90;66.94
76632;BME280;65526;48.578;-4.520;2023-03-14T12:17:54;100317.94;;;5.91;67.42
76632;BME280;65526;48.578;-4.520;2023-03-14T12:20:23;100739.78;;;8.74;66.80
76632;BME280;65526;48.578;-4.520;2023-03-14T12:22:54;101125.34;;;11.11;66.98
76632;BME280;65526;48.578;-4.520;2023-03-14T12:25:26;100232.16;;;5.67;66.69
76632;BME280;65526;48.578;-4.520;2023-03-14T12:30:34;100286.41;;;6.01;67.25
76632;BME280;65526;48.578;-4.520;2023-03-14T12:35:50;100604.78;;;7.91;67.26
76632;BME280;65526;48.578;-4.520;2023-03-14T12:43:50;100897.34;;;9.76;66.59
76632;BME280;65526;48.578;-4.520;2023-03-14T12:48:55;100801.69;;;8.99;64.77
76632;BME280;65526;48.578;-4.520;2023-03-14T12:51:40;100308.66;;;5.96;65.51
76632;BME280;65526;48.578;-4.520;2023-03-14T12:57:09;101015.91;;;10.50;64.13
76632;BME280;65526;48.578;-4.520;2023-03-14T12:59:59;101154.63;;;11.41;64.50
76632;BME280;65526;48.578;-4.520;2023-03-14T13:02:38;100811.69;;;8.91;64.81
76632;BME280;65526;48.578;-4.520;2023-03-14T13:10:18;101165.66;;;11.62;66.23
76632;BME280;65526;48.578;-4.520;2023-03-14T13:13:07;100648.41;;;8.45;67.08
76632;BME280;65526;48.578;-4.520;2023-03-14T13:15:44;100753.81;;;8.90;65.06
76632;BME280;65526;48.578;-4.520;2023-03-14T13:18:18;101030.53;;;10.59;65.40
76632;BME280;65526;48.578;-4.520;2023-03-14T13:21:22;100742.81;;;8.60;64.11
76632;BME280;65526;48.578;-4.520;2023-03-14T13:24:23;100642.06;;;7.94;66.42
76632;BME280;65526;48.578;-4.520;2023-03-14T13:26:54;101068.06;;;10.65;66.37
76632;BME280;65526;48.578;-4.520;2023-03-14T13:29:23;100596.53;;;7.83;66.08
76632;BME280;65526;48.578;-4.520;2023-03-14T13:31:57;100762.41;;;8.76;64.15
76632;BME280;65526;48.578;-4.520;2023-03-14T13:34:28;100331.03;;;5.94;65.09
76632;BME280;65526;48.578;-4.520;2023-03-14T13:36:59;100657.50;;;7.95;65.74
76632;BME280;65526;48.578;-4.520;2023-03-14T13:39:27;100297.00;;;5.73;66.39
76632;BME280;65526;48.578;-4.520;2023-03-14T13:41:59;100467.38;;;6.57;66.41
76632;BME280;65526;48.578;-4.520;2023-03-14T13:44:37;100655.97;;;7.77;66.39
76632;BME280;65526;48.578;-4.520;2023-03-14T13:47:14;100891.88;;;8.96;68.39
76632;BME280;65526;48.578;-4.520;2023-03-14T13:49:43;100335.63;;;5.47;66.40
76632;BME280;65526;48.578;-4.520;2023-03-14T13:52:24;100895.97;;;9.20;68.47
76632;BME280;65526;48.578;-4.520;2023-03-14T13:54:57;101039.44;;;9.69;67.36
76632;BME280;65526;48.578;-4.520;2023-03-14T13:57:25;101241.75;;;11.21;66.55
76632;BME280;65526;48.578;-4.520;2023-03-14T14:00:16;100775.44;;;8.55;66.10
76632;BME280;65526;48.578;-4.520;2023-03-14T14:02:43;100328.94;;;5.74;67.16
76632;BME280;65526;48.578;-4.520;2023-03-14T14:05:12;101189.91;;;11.17;66.88
76632;BME280;65526;48.578;-4.520;2023-03-14T14:07:40;100947.31;;;9.55;66.27
76632;BME280;65526;48.578;-4.520;2023-03-14T14:10:11;100344.06;;;5.68;66.28
76632;BME280;65526;48.578;-4.520;2023-03-14T14:12:42;100941.00;;;9.17;66.39
76632;BME280;65526;48.578;-4.520;2023-03-14T14:17:46;100999.13;;;9.63;68.45